Time;durP1;ratioP1;P1;durP2;ratioP2;P2;SDS_P1;SDS_P2;PMS_P1;PMS_P2;Temp;Humidity;BMP_temperature;BMP_pressure;BME280_temperature;BME280_humidity;BME280_pressure;Samples;Min_cycle;Max_cycle;Signal;HPM_P1;HPM_P2
2021/09/08 00:01:38;;;;;;;9.63;8.63;;;;;;;20.49;56.69;100560.53;10365226;28;20073;-63
2021/09/08 00:06:40;;;;;;;10.05;9.10;;;;;;;20.46;56.96;100569.00;10351100;28;20459;-62
2021/09/08 00:11:41;;;;;;;11.90;8.93;;;;;;;20.40;57.12;100550.81;10377706;28;20092;-62
2021/09/08 00:16:43;;;;;;;8.95;8.05;;;;;;;20.34;57.42;100551.50;10377123;28;20076;-62
2021/09/08 00:21:45;;;;;;;9.52;8.45;;;;;;;20.29;57.44;100553.91;10374963;28;20114;-62
2021/09/08 00:26:46;;;;;;;10.07;9.13;;;;;;;20.23;57.70;100543.84;10379676;28;20091;-61
2021/09/08 00:31:47;;;;;;;9.50;8.50;;;;;;;20.18;57.60;100544.38;10358696;28;20053;-62
2021/09/08 00:36:49;;;;;;;9.27;8.38;;;;;;;20.18;57.90;100547.06;10364352;28;20069;-62
2021/09/08 00:41:50;;;;;;;9.98;8.85;;;;;;;20.16;58.25;100546.41;10378587;28;20076;-62
2021/09/08 00:46:52;;;;;;;10.57;9.13;;;;;;;20.12;58.40;100548.63;10358951;28;20115;-62
2021/09/08 00:51:55;;;;;;;13.07;9.18;;;;;;;20.03;58.54;100552.41;10374261;28;20076;-61
2021/09/08 00:56:58;;;;;;;10.40;9.18;;;;;;;20.01;58.89;100551.75;10365496;28;20128;-62
2021/09/08 01:02:00;;;;;;;10.32;9.18;;;;;;;19.96;58.74;100540.63;10375029;28;20052;-62
2021/09/08 01:07:07;;;;;;;10.50;9.25;;;;;;;19.88;59.04;100544.22;10374381;28;20056;-61
2021/09/08 01:12:09;;;;;;;11.65;9.75;;;;;;;19.84;59.39;100533.94;10380402;28;20137;-61
2021/09/08 01:17:10;;;;;;;9.57;8.45;;;;;;;19.79;59.41;100523.69;10371358;28;20065;-62
2021/09/08 01:22:12;;;;;;;10.45;9.07;;;;;;;19.73;59.73;100521.66;10388010;28;20124;-62
2021/09/08 01:27:13;;;;;;;10.35;9.18;;;;;;;19.69;59.82;100529.25;10370656;28;20050;-63
2021/09/08 01:32:15;;;;;;;10.18;9.18;;;;;;;19.70;59.81;100519.31;10368539;28;20045;-62
2021/09/08 01:37:18;;;;;;;11.65;9.05;;;;;;;19.67;59.93;100525.91;10355836;28;20069;-62
2021/09/08 01:42:21;;;;;;;10.35;9.35;;;;;;;19.63;60.13;100519.16;10369378;28;20065;-62
2021/09/08 01:47:22;;;;;;;11.88;9.45;;;;;;;19.61;60.32;100513.09;10377753;28;20137;-62
2021/09/08 01:52:24;;;;;;;18.80;10.60;;;;;;;19.57;60.30;100511.78;10374000;28;20077;-62
2021/09/08 01:57:25;;;;;;;9.15;8.25;;;;;;;19.53;60.39;100510.44;10371189;28;20458;-62
2021/09/08 02:02:27;;;;;;;11.45;10.05;;;;;;;19.48;60.77;100502.03;10375043;28;20065;-61
2021/09/08 02:07:28;;;;;;;11.25;10.02;;;;;;;19.42;60.56;100499.00;10374924;28;20049;-61
2021/09/08 02:12:30;;;;;;;10.77;9.15;;;;;;;19.35;60.72;100497.19;10380914;28;20076;-62
2021/09/08 02:17:31;;;;;;;12.60;10.98;;;;;;;19.26;60.92;100493.69;10361667;28;20069;-62
2021/09/08 02:22:33;;;;;;;13.70;10.98;;;;;;;19.27;60.78;100495.34;10370996;28;20061;-61
2021/09/08 02:27:35;;;;;;;11.38;10.18;;;;;;;19.22;60.89;100493.19;10360247;28;20682;-62
2021/09/08 02:32:37;;;;;;;13.27;10.85;;;;;;;19.17;60.93;100500.97;10357472;28;20092;-62
2021/09/08 02:37:38;;;;;;;12.20;10.95;;;;;;;19.14;61.38;100495.06;10377307;28;20065;-64
2021/09/08 02:42:40;;;;;;;11.60;10.25;;;;;;;19.06;61.54;100485.97;10366770;28;20129;-62
2021/09/08 02:47:41;;;;;;;13.73;10.68;;;;;;;19.06;61.36;100483.28;10359656;28;20046;-63
2021/09/08 02:52:42;;;;;;;11.40;9.60;;;;;;;19.03;61.59;100488.19;10359292;28;20654;-61
2021/09/08 02:57:44;;;;;;;13.65;10.55;;;;;;;19.00;61.79;100489.38;10363876;28;20092;-61
2021/09/08 03:02:45;;;;;;;11.48;10.32;;;;;;;18.95;61.61;100491.75;10365618;28;20049;-61
2021/09/08 03:07:47;;;;;;;11.27;10.05;;;;;;;18.92;61.88;100481.31;10386133;28;20050;-61
2021/09/08 03:12:48;;;;;;;12.70;10.68;;;;;;;18.85;62.05;100477.59;10362381;28;20171;-61
2021/09/08 03:17:50;;;;;;;10.82;9.32;;;;;;;18.81;62.25;100479.78;10369376;28;20103;-62
2021/09/08 03:22:51;;;;;;;12.55;10.10;;;;;;;18.78;62.36;100476.59;10372101;28;20049;-62
2021/09/08 03:27:53;;;;;;;13.07;10.63;;;;;;;18.72;62.46;100473.56;10367252;28;20048;-62
2021/09/08 03:32:54;;;;;;;12.27;11.07;;;;;;;18.74;62.44;100473.41;10358305;28;20131;-61
2021/09/08 03:37:55;;;;;;;11.50;10.30;;;;;;;18.66;62.54;100465.31;10363427;28;20053;-61
2021/09/08 03:42:57;;;;;;;11.80;10.32;;;;;;;18.67;62.72;100467.00;10371261;28;20069;-61
2021/09/08 03:47:58;;;;;;;12.20;10.48;;;;;;;18.67;62.42;100472.41;10375825;28;20069;-61
2021/09/08 03:53:00;;;;;;;11.68;10.43;;;;;;;18.65;62.75;100464.47;10365733;28;20077;-62
2021/09/08 03:58:01;;;;;;;12.07;10.50;;;;;;;18.61;62.93;100473.91;10368895;28;20077;-62
2021/09/08 04:03:02;;;;;;;11.52;10.43;;;;;;;18.59;62.74;100465.16;10388298;28;20151;-60
2021/09/08 04:08:04;;;;;;;11.82;10.63;;;;;;;18.55;62.87;100453.91;10371428;28;20042;-62
2021/09/08 04:13:05;;;;;;;13.52;10.82;;;;;;;18.56;63.17;100460.13;10366896;28;20080;-61
2021/09/08 04:18:07;;;;;;;12.07;10.73;;;;;;;18.56;62.91;100454.72;10373492;28;20089;-61
2021/09/08 04:23:09;;;;;;;13.50;10.88;;;;;;;18.52;63.10;100458.78;10381906;28;20070;-62
2021/09/08 04:28:10;;;;;;;12.32;11.13;;;;;;;18.45;63.36;100455.94;10366915;28;20069;-61
2021/09/08 04:33:11;;;;;;;13.45;12.05;;;;;;;18.40;63.45;100452.06;10367351;28;20076;-61
2021/09/08 04:38:13;;;;;;;12.98;11.13;;;;;;;18.38;63.44;100454.91;10375035;28;20124;-61
2021/09/08 04:43:14;;;;;;;12.18;10.50;;;;;;;18.35;63.69;100466.88;10378386;28;20045;-60
2021/09/08 04:48:16;;;;;;;12.50;11.20;;;;;;;18.34;63.44;100451.69;10376766;28;20069;-61
2021/09/08 04:53:17;;;;;;;12.85;11.05;;;;;;;18.35;63.67;100458.78;10372783;28;20070;-61
2021/09/08 04:58:18;;;;;;;12.50;11.27;;;;;;;18.32;63.49;100451.03;10364735;28;20115;-61
2021/09/08 05:03:20;;;;;;;11.30;10.15;;;;;;;18.24;63.62;100451.06;10372145;28;20124;-61
2021/09/08 05:08:21;;;;;;;12.50;11.20;;;;;;;18.21;63.95;100456.78;10375334;28;20550;-62
2021/09/08 05:13:23;;;;;;;14.52;11.57;;;;;;;18.17;63.91;100458.13;10373239;28;20454;-62
2021/09/08 05:18:24;;;;;;;12.98;10.45;;;;;;;18.17;64.09;100458.97;10381019;28;20076;-62
2021/09/08 05:23:26;;;;;;;11.55;10.43;;;;;;;18.20;63.85;100463.19;10368766;22;20144;-56
2021/09/08 05:28:27;;;;;;;13.65;11.05;;;;;;;18.18;64.01;100451.75;10337099;28;20451;-54
2021/09/08 05:33:29;;;;;;;11.93;10.73;;;;;;;18.23;63.80;100459.31;10304210;28;20070;-54
2021/09/08 05:38:30;;;;;;;12.07;10.13;;;;;;;18.18;63.70;100443.66;10312434;28;20046;-54
2021/09/08 05:43:32;;;;;;;12.45;10.90;;;;;;;18.30;63.81;100461.16;10302904;28;20085;-55
2021/09/08 05:48:34;;;;;;;13.48;10.57;;;;;;;18.29;63.92;100447.84;10305427;28;20115;-55
2021/09/08 05:53:35;;;;;;;15.77;10.70;;;;;;;18.42;63.65;100467.06;10301850;28;20147;-55
2021/09/08 05:58:37;;;;;;;14.13;10.90;;;;;;;18.44;63.24;100456.09;10301662;28;20145;-55
2021/09/08 06:03:38;;;;;;;13.15;11.05;;;;;;;18.56;63.18;100460.13;10308179;28;20128;-54
2021/09/08 06:08:40;;;;;;;13.35;10.57;;;;;;;18.60;62.91;100452.53;10294223;28;20423;-55
2021/09/08 06:13:41;;;;;;;12.07;10.57;;;;;;;18.80;62.28;100466.50;10295056;28;20967;-54
2021/09/08 06:18:43;;;;;;;10.98;9.77;;;;;;;19.00;62.08;100470.50;10297616;28;20058;-55
2021/09/08 06:23:44;;;;;;;11.35;9.93;;;;;;;19.14;61.46;100454.59;10297541;28;20907;-55
2021/09/08 06:28:48;;;;;;;12.13;10.80;;;;;;;19.35;60.96;100449.47;10298278;28;20057;-55
2021/09/08 06:33:50;;;;;;;11.05;9.93;;;;;;;19.50;60.64;100452.25;10310728;28;20053;-55
2021/09/08 06:38:52;;;;;;;13.60;11.85;;;;;;;19.63;60.37;100454.34;10304324;28;20478;-54
2021/09/08 06:43:53;;;;;;;11.18;9.70;;;;;;;19.82;59.48;100449.56;10313426;28;21651;-54
2021/09/08 06:48:55;;;;;;;11.75;9.55;;;;;;;20.00;59.16;100457.38;10306942;28;20050;-55
2021/09/08 06:53:57;;;;;;;11.75;10.55;;;;;;;20.03;58.40;100449.72;10303166;28;20047;-55
2021/09/08 06:58:58;;;;;;;10.98;9.50;;;;;;;20.27;57.79;100451.38;10294366;28;20069;-56
2021/09/08 07:04:00;;;;;;;11.10;9.90;;;;;;;20.38;57.01;100430.34;10294623;28;20068;-56
2021/09/08 07:09:01;;;;;;;10.32;9.27;;;;;;;20.67;55.90;100437.69;10298573;28;20586;-56
2021/09/08 07:14:03;;;;;;;13.02;9.20;;;;;;;20.82;55.17;100435.84;10298206;28;20070;-54
2021/09/08 07:19:05;;;;;;;10.68;8.50;;;;;;;20.96;55.55;100442.28;10301601;28;20535;-57
2021/09/08 07:24:06;;;;;;;12.88;10.05;;;;;;;21.09;54.74;100436.22;10308590;28;20073;-56
2021/09/08 07:29:17;;;;;;;13.23;9.38;;;;;;;21.19;54.84;100435.91;10304551;28;20504;-55
2021/09/08 07:34:18;;;;;;;12.85;9.95;;;;;;;21.32;54.17;100435.25;10304162;28;20142;-55
2021/09/08 07:39:20;;;;;;;10.27;9.18;;;;;;;21.53;53.70;100443.44;10302720;28;20676;-56
2021/09/08 07:44:21;;;;;;;11.25;9.48;;;;;;;21.68;53.92;100445.28;10306703;28;20209;-55
2021/09/08 07:49:23;;;;;;;11.07;9.45;;;;;;;21.70;53.66;100422.34;10314394;28;20074;-56
2021/09/08 07:54:24;;;;;;;10.40;9.05;;;;;;;22.11;52.58;100433.59;10311484;28;20077;-55
2021/09/08 07:59:25;;;;;;;14.05;9.43;;;;;;;21.97;53.05;100436.16;10309995;28;20141;-56
2021/09/08 08:04:27;;;;;;;11.45;8.98;;;;;;;22.18;53.16;100435.31;10316755;28;20070;-56
2021/09/08 08:09:28;;;;;;;11.35;10.02;;;;;;;22.25;53.01;100429.97;10323266;28;20069;-55
2021/09/08 08:14:30;;;;;;;14.15;10.02;;;;;;;22.68;52.09;100426.34;10311256;28;20081;-55
2021/09/08 08:19:32;;;;;;;11.48;10.15;;;;;;;22.80;51.03;100419.31;10307607;28;20459;-55
2021/09/08 08:24:33;;;;;;;10.77;9.68;;;;;;;23.06;51.61;100426.75;10304288;28;20057;-54
2021/09/08 08:29:35;;;;;;;11.20;9.75;;;;;;;23.21;50.41;100423.94;10316074;28;20757;-55
2021/09/08 08:34:36;;;;;;;12.73;9.90;;;;;;;23.41;50.32;100423.19;10301709;28;20051;-56
2021/09/08 08:39:38;;;;;;;13.13;10.00;;;;;;;23.58;50.14;100426.34;10316078;28;20074;-55
2021/09/08 08:44:40;;;;;;;14.13;11.10;;;;;;;23.96;48.95;100414.94;10302532;28;20138;-55
2021/09/08 08:49:43;;;;;;;10.30;9.20;;;;;;;24.32;47.46;100422.69;10298130;28;20154;-55
2021/09/08 08:54:45;;;;;;;13.82;9.27;;;;;;;24.65;46.35;100400.09;10321388;28;20112;-55
2021/09/08 08:59:49;;;;;;;11.23;9.75;;;;;;;24.67;46.93;100400.69;10311123;28;20070;-55
2021/09/08 09:04:53;;;;;;;10.02;8.98;;;;;;;24.93;46.13;100398.13;10304467;28;20086;-55
2021/09/08 09:10:00;;;;;;;11.02;9.75;;;;;;;25.23;45.61;100398.41;10305501;28;20074;-53
2021/09/08 09:15:10;;;;;;;12.07;9.80;;;;;;;25.59;44.95;100396.97;10318712;28;20578;-55
2021/09/08 09:20:16;;;;;;;12.38;9.85;;;;;;;26.01;43.53;100388.34;10311405;28;20137;-56
2021/09/08 09:25:21;;;;;;;10.73;9.63;;;;;;;26.40;42.55;100387.13;10313988;28;20054;-55
2021/09/08 09:30:26;;;;;;;9.68;8.52;;;;;;;26.95;41.83;100380.91;10301120;28;20073;-55
2021/09/08 09:35:30;;;;;;;10.75;9.73;;;;;;;27.16;40.98;100379.59;10301247;28;20058;-54
2021/09/08 09:40:37;;;;;;;9.82;8.82;;;;;;;27.52;38.66;100364.19;10299583;28;20106;-55
2021/09/08 09:45:40;;;;;;;9.38;8.48;;;;;;;27.83;39.07;100362.25;10304409;28;20519;-53
2021/09/08 09:50:47;;;;;;;9.13;8.18;;;;;;;28.29;37.45;100358.97;10290971;28;20070;-54
2021/09/08 09:55:49;;;;;;;13.52;10.43;;;;;;;28.36;37.68;100357.78;10306357;28;20097;-55
2021/09/08 10:00:52;;;;;;;10.48;9.18;;;;;;;29.05;35.76;100357.06;10303823;28;20062;-55
2021/09/08 10:05:53;;;;;;;9.60;8.57;;;;;;;29.60;35.36;100343.84;10306394;28;20049;-55
2021/09/08 10:10:58;;;;;;;8.67;7.83;;;;;;;30.58;33.61;100335.25;10313818;28;20053;-54
2021/09/08 10:15:59;;;;;;;9.60;7.78;;;;;;;33.83;28.57;100319.75;10306938;28;20514;-56
2021/09/08 10:21:07;;;;;;;9.30;8.38;;;;;;;34.75;26.99;100312.31;10320212;28;20422;-55
2021/09/08 10:26:11;;;;;;;10.50;8.43;;;;;;;36.35;25.17;100300.88;10310019;28;20147;-54
2021/09/08 10:31:14;;;;;;;9.68;8.57;;;;;;;34.58;26.53;100300.81;10313085;28;20079;-55
2021/09/08 10:36:18;;;;;;;13.35;9.55;;;;;;;34.16;27.62;100292.63;10296284;28;20062;-59
2021/09/08 10:41:19;;;;;;;8.90;8.13;;;;;;;34.68;26.37;100295.22;10293222;28;20070;-57
2021/09/08 10:46:21;;;;;;;9.90;8.88;;;;;;;38.49;22.04;100274.66;10297710;28;20142;-56
2021/09/08 10:51:31;;;;;;;10.85;7.88;;;;;;;41.16;18.79;100261.19;10301522;28;20064;-56
2021/09/08 10:56:46;;;;;;;8.15;7.43;;;;;;;42.77;16.97;100253.53;10309948;28;20129;-56
2021/09/08 11:01:52;;;;;;;7.82;7.13;;;;;;;43.90;16.63;100238.41;10296273;28;20070;-56
2021/09/08 11:06:56;;;;;;;7.55;6.85;;;;;;;45.09;15.22;100238.47;10292871;28;20078;-57
2021/09/08 11:11:59;;;;;;;7.18;6.57;;;;;;;46.13;14.05;100226.28;10307657;28;20130;-57
2021/09/08 11:17:02;;;;;;;8.05;6.60;;;;;;;47.25;13.50;100229.50;10299258;28;20423;-58
2021/09/08 11:22:03;;;;;;;8.23;6.40;;;;;;;47.42;13.13;100228.22;10313899;28;20085;-58
2021/09/08 11:27:08;;;;;;;8.00;6.85;;;;;;;47.41;12.72;100216.13;10373449;22;20133;-59
2021/09/08 11:32:10;;;;;;;6.88;6.20;;;;;;;46.69;12.67;100219.53;10383735;28;20517;-64
2021/09/08 11:37:14;;;;;;;7.30;6.43;;;;;;;46.82;13.05;100217.38;10392984;28;20217;-59
2021/09/08 11:42:16;;;;;;;8.13;7.25;;;;;;;47.09;12.92;100199.44;10383743;28;20693;-60
2021/09/08 11:47:17;;;;;;;6.70;6.07;;;;;;;47.84;12.31;100196.31;10385273;28;20053;-60
2021/09/08 11:52:18;;;;;;;6.45;5.80;;;;;;;48.90;11.51;100196.56;10383109;28;20088;-60
2021/09/08 11:57:23;;;;;;;5.95;5.50;;;;;;;49.86;10.93;100191.03;10384975;28;20069;-59
2021/09/08 12:02:24;;;;;;;6.35;5.75;;;;;;;50.71;10.67;100185.44;10383966;28;20110;-60
2021/09/08 12:07:29;;;;;;;5.45;5.05;;;;;;;50.75;9.89;100160.78;10374657;28;20049;-60
2021/09/08 12:12:31;;;;;;;5.50;5.00;;;;;;;50.93;9.58;100167.28;10394006;28;20041;-60
2021/09/08 12:17:32;;;;;;;5.55;5.15;;;;;;;50.68;9.69;100158.72;10390688;28;20057;-60
2021/09/08 12:22:36;;;;;;;5.45;5.05;;;;;;;50.60;9.29;100151.44;10386680;28;20069;-60
2021/09/08 12:27:53;;;;;;;5.05;4.55;;;;;;;49.64;9.38;100149.66;10392492;28;20184;-60
2021/09/08 12:32:59;;;;;;;5.90;5.40;;;;;;;48.74;9.62;100138.28;10384738;28;20120;-60
2021/09/08 12:38:01;;;;;;;4.63;4.33;;;;;;;48.82;9.87;100128.72;10388472;28;20077;-61
2021/09/08 12:43:02;;;;;;;5.32;4.78;;;;;;;48.09;10.28;100112.09;10389779;28;20818;-60
2021/09/08 12:48:04;;;;;;;5.03;4.57;;;;;;;48.33;10.47;100107.13;10388128;28;20049;-60
2021/09/08 12:53:05;;;;;;;4.82;4.32;;;;;;;47.59;10.62;100102.88;10388469;28;20081;-60
2021/09/08 12:58:08;;;;;;;4.80;4.40;;;;;;;43.43;13.74;100096.75;10377685;28;20085;-55
2021/09/08 13:03:11;;;;;;;4.38;4.07;;;;;;;40.59;16.49;100091.19;10374839;28;20115;-54
2021/09/08 13:08:12;;;;;;;4.75;4.35;;;;;;;38.60;18.37;100085.38;10388568;28;20231;-55
2021/09/08 13:13:14;;;;;;;6.47;5.03;;;;;;;37.36;19.23;100081.69;10380925;28;20107;-55
2021/09/08 13:18:17;;;;;;;4.72;4.28;;;;;;;36.68;20.38;100072.84;10382090;28;20084;-54
2021/09/08 13:23:19;;;;;;;5.70;5.22;;;;;;;35.38;22.04;100051.63;10374337;28;20116;-54
2021/09/08 13:28:21;;;;;;;5.57;5.07;;;;;;;35.02;22.47;100057.53;10374812;28;20109;-55
2021/09/08 13:33:22;;;;;;;5.35;4.90;;;;;;;34.66;23.40;100049.53;10375446;28;20084;-54
2021/09/08 13:38:24;;;;;;;5.90;5.43;;;;;;;34.15;23.64;100036.91;10343171;28;20140;-60
2021/09/08 13:43:25;;;;;;;7.60;5.68;;;;;;;33.70;24.13;100049.81;10341680;28;20567;-54
2021/09/08 13:48:27;;;;;;;5.97;5.47;;;;;;;32.95;24.94;100045.06;10347215;28;20056;-57
2021/09/08 13:53:30;;;;;;;6.57;5.97;;;;;;;32.56;25.68;100026.31;10355821;28;20085;-62
2021/09/08 13:58:32;;;;;;;7.00;5.90;;;;;;;32.61;25.55;100034.59;10380407;28;20050;-62
2021/09/08 14:03:33;;;;;;;5.90;5.40;;;;;;;32.43;26.08;100014.75;10358921;28;20041;-62
2021/09/08 14:08:36;;;;;;;6.45;5.85;;;;;;;32.04;26.88;100014.41;10364198;28;20418;-63
2021/09/08 14:13:38;;;;;;;6.28;5.78;;;;;;;31.89;27.26;100013.28;10376107;28;20088;-63
2021/09/08 14:18:40;;;;;;;6.82;6.18;;;;;;;31.73;27.29;99998.63;10368340;28;20144;-63
2021/09/08 14:23:42;;;;;;;6.80;5.93;;;;;;;31.27;28.06;99992.09;10361222;28;20056;-62
2021/09/08 14:28:43;;;;;;;8.18;7.38;;;;;;;30.92;29.01;99988.88;10359786;28;20124;-62
2021/09/08 14:33:44;;;;;;;7.80;6.93;;;;;;;30.53;28.89;99986.41;10361058;28;20127;-62
2021/09/08 14:38:49;;;;;;;7.68;6.93;;;;;;;30.36;29.52;100002.16;10368136;28;20394;-63
2021/09/08 14:43:50;;;;;;;7.63;6.75;;;;;;;30.14;29.87;99994.81;10364987;28;20129;-61
2021/09/08 14:48:52;;;;;;;7.22;6.53;;;;;;;29.96;30.03;99987.78;10366973;28;20041;-61
2021/09/08 14:53:53;;;;;;;7.13;6.43;;;;;;;29.61;30.77;99981.63;10365460;28;20558;-61
2021/09/08 14:58:59;;;;;;;6.80;6.27;;;;;;;29.25;30.75;99975.69;10366164;28;20061;-62
2021/09/08 15:04:00;;;;;;;6.60;5.93;;;;;;;29.02;31.55;99970.41;10361542;28;20553;-61
2021/09/08 15:09:03;;;;;;;6.50;5.93;;;;;;;28.96;32.03;99963.19;10368639;28;21291;-61
2021/09/08 15:14:05;;;;;;;7.38;6.63;;;;;;;28.70;32.36;99960.09;10353472;28;20184;-61
2021/09/08 15:19:06;;;;;;;7.25;6.53;;;;;;;28.59;32.51;99961.81;10363601;28;20146;-62
2021/09/08 15:24:08;;;;;;;6.80;6.17;;;;;;;28.54;32.84;99957.09;10365553;28;20049;-62
2021/09/08 15:29:09;;;;;;;9.07;6.20;;;;;;;28.49;32.40;99959.75;10367451;28;20136;-62
2021/09/08 15:34:11;;;;;;;7.43;6.73;;;;;;;28.39;32.17;99944.00;10364508;28;20140;-62
2021/09/08 15:39:13;;;;;;;6.78;6.05;;;;;;;28.20;32.89;99950.78;10368489;28;20132;-62
2021/09/08 15:44:14;;;;;;;6.73;6.23;;;;;;;28.17;32.85;99946.63;10371297;28;20132;-62
2021/09/08 15:49:16;;;;;;;6.97;6.38;;;;;;;28.17;32.85;99938.44;10385363;28;20453;-61
2021/09/08 15:54:17;;;;;;;7.53;6.78;;;;;;;28.03;32.75;99929.72;10369476;28;20529;-67
2021/09/08 15:59:18;;;;;;;8.25;6.40;;;;;;;27.90;33.04;99934.66;10380340;28;20673;-62
2021/09/08 16:04:20;;;;;;;6.63;6.07;;;;;;;27.84;33.37;99926.34;10371270;28;20244;-62
2021/09/08 16:09:22;;;;;;;6.80;6.27;;;;;;;27.85;33.18;99924.44;10370810;28;20133;-62
2021/09/08 16:14:27;;;;;;;7.00;6.38;;;;;;;27.68;33.59;99911.56;10370305;28;20326;-62
2021/09/08 16:19:28;;;;;;;6.00;5.40;;;;;;;27.62;33.48;99909.81;10366807;28;20052;-63
2021/09/08 16:24:29;;;;;;;6.93;6.13;;;;;;;27.47;33.71;99904.91;10367574;28;20460;-62
2021/09/08 16:29:31;;;;;;;6.85;6.20;;;;;;;27.32;33.54;99897.22;10372172;28;20144;-62
2021/09/08 16:34:33;;;;;;;7.45;6.68;;;;;;;27.20;34.15;99882.72;10368281;28;20176;-62
2021/09/08 16:39:34;;;;;;;6.17;5.67;;;;;;;27.12;34.53;99891.31;10371325;28;20056;-62
2021/09/08 16:44:36;;;;;;;6.68;6.07;;;;;;;27.08;34.22;99890.97;10373634;28;20692;-62
2021/09/08 16:49:38;;;;;;;6.30;5.78;;;;;;;26.95;34.54;99880.31;10386977;28;20041;-62
2021/09/08 16:54:39;;;;;;;7.78;6.13;;;;;;;26.84;34.54;99887.44;10385035;28;20594;-62
2021/09/08 16:59:41;;;;;;;6.43;5.93;;;;;;;26.76;34.78;99883.19;10384820;28;20945;-63
2021/09/08 17:04:42;;;;;;;9.32;6.50;;;;;;;26.65;34.76;99881.28;10373096;28;20112;-61
2021/09/08 17:09:44;;;;;;;7.28;6.60;;;;;;;26.59;35.11;99874.88;10372800;28;20164;-61
2021/09/08 17:14:45;;;;;;;7.00;6.32;;;;;;;26.52;35.14;99878.78;10368824;28;20061;-61
2021/09/08 17:19:47;;;;;;;7.75;6.75;;;;;;;26.40;35.62;99862.41;10369758;28;20122;-61
2021/09/08 17:24:48;;;;;;;7.18;6.57;;;;;;;26.34;35.87;99863.38;10369810;28;20141;-61
2021/09/08 17:29:50;;;;;;;7.78;6.63;;;;;;;26.24;36.93;99863.94;10370393;28;20504;-62
2021/09/08 17:34:51;;;;;;;6.80;6.10;;;;;;;26.08;37.04;99866.31;10368408;28;20060;-62
2021/09/08 17:40:00;;;;;;;7.13;6.43;;;;;;;25.98;37.44;99859.75;10364345;28;20517;-62
2021/09/08 17:45:02;;;;;;;7.47;6.78;;;;;;;25.88;37.78;99860.31;10366784;28;20259;-61
2021/09/08 17:50:06;;;;;;;7.73;6.60;;;;;;;25.65;38.11;99842.03;10362525;28;20128;-62
2021/09/08 17:55:10;;;;;;;7.20;6.50;;;;;;;25.61;38.99;99860.72;10358517;28;20796;-64
2021/09/08 18:00:13;;;;;;;7.70;6.60;;;;;;;25.55;38.99;99859.78;10362626;28;20139;-63
2021/09/08 18:05:16;;;;;;;;;;;;;;;25.45;40.34;99866.84;10364529;28;20838;-62
2021/09/08 18:10:17;;;;;;;8.17;7.37;;;;;;;25.35;41.03;99860.03;10361250;28;19944;-61
2021/09/08 18:15:19;;;;;;;10.05;7.70;;;;;;;25.19;41.20;99866.94;10361619;28;20234;-64
2021/09/08 18:20:21;;;;;;;8.70;7.17;;;;;;;25.10;41.26;99872.91;10359884;28;20082;-62
2021/09/08 18:25:23;;;;;;;7.82;7.13;;;;;;;25.00;41.89;99877.00;10358824;28;20308;-62
2021/09/08 18:30:24;;;;;;;8.15;7.35;;;;;;;24.90;42.24;99882.16;10360384;28;20113;-62
2021/09/08 18:35:26;;;;;;;8.18;7.35;;;;;;;24.83;42.00;99886.81;10364478;28;20124;-61
2021/09/08 18:40:28;;;;;;;7.07;6.38;;;;;;;24.75;42.03;99873.53;10373385;28;20591;-61
2021/09/08 18:45:29;;;;;;;8.70;6.90;;;;;;;24.64;42.40;99875.94;10360457;28;20069;-64
2021/09/08 18:50:31;;;;;;;9.93;8.73;;;;;;;24.55;42.68;99879.97;10362717;28;20063;-61
2021/09/08 18:55:33;;;;;;;8.63;7.75;;;;;;;24.46;42.67;99878.63;10362532;28;20128;-62
2021/09/08 19:00:36;;;;;;;7.63;6.72;;;;;;;24.41;42.62;99878.44;10363371;28;20049;-61
2021/09/08 19:05:37;;;;;;;8.68;7.75;;;;;;;24.30;42.61;99871.84;10363499;28;20081;-61
2021/09/08 19:10:39;;;;;;;7.80;6.63;;;;;;;24.20;42.59;99875.09;10362664;28;20195;-63
2021/09/08 19:15:40;;;;;;;8.95;7.90;;;;;;;24.17;42.98;99875.53;10365702;28;20149;-63
2021/09/08 19:20:42;;;;;;;9.32;7.72;;;;;;;24.07;43.15;99872.47;10363882;28;20064;-62
2021/09/08 19:25:44;;;;;;;7.82;7.05;;;;;;;24.05;42.54;99869.13;10363742;28;20132;-61
2021/09/08 19:30:45;;;;;;;9.35;8.45;;;;;;;23.89;43.22;99865.91;10361531;28;20414;-61
2021/09/08 19:35:47;;;;;;;9.80;8.85;;;;;;;23.86;43.63;99871.78;10363616;28;20049;-61
2021/09/08 19:40:48;;;;;;;7.65;6.40;;;;;;;23.71;44.10;99858.47;10366850;28;21574;-62
2021/09/08 19:45:50;;;;;;;9.75;8.57;;;;;;;23.73;44.03;99866.41;10366783;28;20570;-63
2021/09/08 19:50:51;;;;;;;7.90;7.10;;;;;;;23.66;44.24;99861.03;10361868;28;20104;-62
2021/09/08 19:55:53;;;;;;;9.15;8.27;;;;;;;23.57;44.76;99852.31;10362231;28;20655;-62
2021/09/08 20:00:54;;;;;;;8.88;8.07;;;;;;;23.52;44.82;99849.41;10363558;28;20236;-62
2021/09/08 20:05:56;;;;;;;7.53;6.82;;;;;;;23.44;44.96;99853.22;10364531;28;20073;-62
2021/09/08 20:10:58;;;;;;;8.93;8.13;;;;;;;23.35;45.15;99851.81;10363344;28;20129;-62
2021/09/08 20:16:00;;;;;;;9.50;8.30;;;;;;;23.25;45.30;99854.97;10363410;28;20153;-64
2021/09/08 20:21:01;;;;;;;9.57;8.75;;;;;;;23.17;45.79;99847.09;10362339;28;20061;-62
2021/09/08 20:26:03;;;;;;;11.27;10.18;;;;;;;23.11;46.24;99856.09;10358475;28;21491;-62
2021/09/08 20:31:04;;;;;;;11.18;9.38;;;;;;;23.02;46.45;99854.66;10365431;28;20124;-62
2021/09/08 20:36:06;;;;;;;10.50;8.90;;;;;;;22.98;46.85;99853.41;10371303;28;20041;-61
2021/09/08 20:41:07;;;;;;;9.13;8.32;;;;;;;22.91;46.97;99857.00;10386062;28;20056;-63
2021/09/08 20:46:09;;;;;;;10.52;9.52;;;;;;;22.78;47.28;99848.88;10385955;28;20064;-63
2021/09/08 20:51:10;;;;;;;11.52;8.60;;;;;;;22.73;47.56;99849.53;10383186;28;20073;-63
2021/09/08 20:56:13;;;;;;;8.90;7.80;;;;;;;22.67;47.64;99841.41;10396859;28;20436;-62
2021/09/08 21:01:15;;;;;;;8.48;7.68;;;;;;;22.58;48.37;99844.34;10381488;28;20124;-62
2021/09/08 21:06:18;;;;;;;8.25;7.50;;;;;;;22.53;48.19;99846.03;10384385;28;20128;-62
2021/09/08 21:11:19;;;;;;;8.75;7.80;;;;;;;22.45;48.33;99844.38;10399871;28;20156;-68
2021/09/08 21:16:21;;;;;;;9.15;8.02;;;;;;;22.35;48.50;99836.69;10373315;28;20073;-60
2021/09/08 21:21:22;;;;;;;8.50;7.70;;;;;;;22.25;48.72;99834.38;10381759;28;20045;-62
2021/09/08 21:26:24;;;;;;;9.73;8.82;;;;;;;22.21;49.08;99838.53;10374168;28;20070;-62
2021/09/08 21:31:25;;;;;;;10.63;9.30;;;;;;;22.14;49.37;99837.69;10381341;28;20120;-62
2021/09/08 21:36:26;;;;;;;8.93;8.02;;;;;;;22.09;49.54;99845.63;10379295;28;20522;-62
2021/09/08 21:41:28;;;;;;;9.52;8.55;;;;;;;22.03;49.48;99838.34;10378553;28;20118;-62
2021/09/08 21:46:29;;;;;;;11.00;9.77;;;;;;;21.94;49.61;99837.72;10376790;28;20253;-62
2021/09/08 21:51:31;;;;;;;9.10;8.20;;;;;;;21.86;49.63;99840.66;10383556;28;20120;-61
2021/09/08 21:56:32;;;;;;;13.30;9.65;;;;;;;21.89;49.62;99846.47;10376088;28;20061;-62
2021/09/08 22:01:33;;;;;;;8.98;8.07;;;;;;;21.84;49.76;99843.56;10382675;28;20355;-61
2021/09/08 22:06:35;;;;;;;9.13;8.13;;;;;;;21.79;50.04;99840.63;10379183;28;20053;-61
2021/09/08 22:11:37;;;;;;;8.43;7.63;;;;;;;21.74;49.88;99840.44;10376727;28;20119;-61
2021/09/08 22:16:38;;;;;;;8.05;7.25;;;;;;;21.64;50.01;99832.69;10387221;28;20777;-61
2021/09/08 22:21:40;;;;;;;8.27;7.47;;;;;;;21.64;49.94;99842.69;10385143;28;20248;-62
2021/09/08 22:26:42;;;;;;;8.30;7.50;;;;;;;21.61;49.67;99843.13;10381773;28;20100;-61
2021/09/08 22:31:44;;;;;;;10.13;8.73;;;;;;;21.60;49.62;99838.72;10398579;28;20504;-61
2021/09/08 22:36:45;;;;;;;8.07;7.32;;;;;;;21.58;49.71;99841.63;10396205;28;20679;-61
2021/09/08 22:41:47;;;;;;;8.48;7.70;;;;;;;21.52;49.83;99839.75;10378001;28;20103;-61
2021/09/08 22:46:48;;;;;;;8.48;7.32;;;;;;;21.49;50.27;99840.97;10381119;28;20041;-61
2021/09/08 22:51:50;;;;;;;12.02;7.95;;;;;;;21.44;50.49;99835.34;10374238;28;20119;-61
2021/09/08 22:56:52;;;;;;;7.60;6.90;;;;;;;21.38;50.68;99828.03;10381446;28;20133;-61
2021/09/08 23:01:53;;;;;;;8.45;7.55;;;;;;;21.34;50.94;99827.59;10371962;28;20115;-61